createdAt,value
2022-07-25T00:02:27.492Z,60.71
2022-07-25T00:04:55.275Z,59.78
2022-07-25T00:07:23.118Z,58.52
2022-07-25T00:09:50.870Z,58.56
2022-07-25T00:12:19.158Z,59.35
2022-07-25T00:14:48.125Z,60.05
2022-07-25T00:17:16.018Z,60.65
2022-07-25T00:19:43.798Z,61.24
2022-07-25T00:22:11.635Z,61.78
2022-07-25T00:24:39.419Z,63.44
2022-07-25T00:27:07.402Z,62.21
2022-07-25T00:29:36.163Z,61.09
2022-07-25T00:32:05.034Z,60.57
2022-07-25T00:34:32.856Z,60.08
2022-07-25T00:37:00.650Z,60.56
2022-07-25T00:39:28.542Z,58.75
2022-07-25T00:41:56.300Z,57.89
2022-07-25T00:44:27.275Z,58.73
2022-07-25T00:46:56.118Z,59.62
2022-07-25T00:49:25.149Z,60.33
2022-07-25T00:51:54.679Z,60.92
2022-07-25T00:54:23.138Z,61.59
2022-07-25T00:56:51.708Z,62.15
2022-07-25T00:59:19.592Z,63.89
2022-07-25T01:01:48.875Z,63.50
2022-07-25T01:04:17.347Z,60.23
2022-07-25T01:06:45.234Z,56.87
2022-07-25T01:09:13.481Z,56.74
2022-07-25T01:11:41.255Z,57.91
2022-07-25T01:14:09.368Z,59.15
2022-07-25T01:16:37.575Z,60.05
2022-07-25T01:19:05.868Z,60.80
2022-07-25T01:21:33.595Z,61.47
2022-07-25T01:24:01.355Z,63.38
2022-07-25T01:26:30.657Z,62.91
2022-07-25T01:28:58.414Z,59.51
2022-07-25T01:31:26.372Z,56.08
2022-07-25T01:33:54.194Z,56.44
2022-07-25T01:36:21.967Z,57.80
2022-07-25T01:38:49.738Z,59.12
2022-07-25T01:41:22.636Z,59.90
2022-07-25T01:43:50.585Z,60.41
2022-07-25T01:46:18.397Z,61.16
2022-07-25T01:48:46.357Z,61.79
2022-07-25T01:51:14.512Z,63.73
2022-07-25T01:53:42.285Z,63.10
2022-07-25T01:56:12.405Z,59.45
2022-07-25T01:58:40.318Z,55.60
2022-07-25T02:01:08.205Z,55.77
2022-07-25T02:03:36.103Z,57.30
2022-07-25T02:06:07.483Z,58.47
2022-07-25T02:08:35.999Z,59.47
2022-07-25T02:11:03.840Z,60.36
2022-07-25T02:13:31.700Z,61.08
2022-07-25T02:16:00.141Z,61.99
2022-07-25T02:18:27.957Z,64.35
2022-07-25T02:20:56.136Z,62.22
2022-07-25T02:23:23.893Z,57.48
2022-07-25T02:25:51.934Z,56.80
2022-07-25T02:28:19.946Z,58.00
2022-07-25T02:30:47.742Z,59.36
2022-07-25T02:33:15.581Z,60.48
2022-07-25T02:35:43.665Z,61.37
2022-07-25T02:38:11.563Z,63.69
2022-07-25T02:40:39.332Z,62.06
2022-07-25T02:43:07.066Z,57.65
2022-07-25T02:45:35.192Z,57.46
2022-07-25T02:48:03.347Z,58.70
2022-07-25T02:50:31.228Z,60.04
2022-07-25T02:52:59.057Z,60.80
2022-07-25T02:55:27.063Z,61.81
2022-07-25T02:57:54.978Z,63.83
2022-07-25T03:00:24.098Z,62.93
2022-07-25T03:02:51.923Z,59.81
2022-07-25T03:05:19.733Z,56.49
2022-07-25T03:07:47.506Z,56.73
2022-07-25T03:10:15.496Z,58.13
2022-07-25T03:12:44.401Z,59.46
2022-07-25T03:15:13.240Z,60.52
2022-07-25T03:17:42.259Z,61.70
2022-07-25T03:20:10.393Z,63.30
2022-07-25T03:22:38.309Z,63.27
2022-07-25T03:25:06.706Z,62.14
2022-07-25T03:27:43.928Z,59.69
2022-07-25T03:30:12.344Z,56.75
2022-07-25T03:32:41.115Z,57.58
2022-07-25T03:35:09.530Z,58.96
2022-07-25T03:37:37.388Z,60.21
2022-07-25T03:40:06.510Z,61.32
2022-07-25T03:42:35.336Z,62.04
2022-07-25T03:45:05.223Z,63.69
2022-07-25T03:47:33.031Z,63.74
2022-07-25T03:50:00.767Z,62.97
2022-07-25T03:52:28.491Z,62.08
2022-07-25T03:54:56.267Z,61.49
2022-07-25T03:57:24.059Z,60.75
2022-07-25T03:59:51.752Z,60.58
2022-07-25T04:02:19.489Z,57.16
2022-07-25T04:04:47.310Z,56.87
2022-07-25T04:07:15.150Z,57.97
2022-07-25T04:09:42.836Z,58.79
2022-07-25T04:12:11.013Z,59.55
2022-07-25T04:14:38.753Z,60.01
2022-07-25T04:17:06.816Z,60.42
2022-07-25T04:19:35.050Z,60.75
2022-07-25T04:22:03.466Z,60.98
2022-07-25T04:24:31.490Z,61.16
2022-07-25T04:26:59.210Z,61.26
2022-07-25T04:29:26.936Z,61.30
2022-07-25T04:31:54.767Z,61.42
2022-07-25T04:34:22.526Z,61.49
2022-07-25T04:36:50.523Z,61.51
2022-07-25T04:39:18.243Z,61.42
2022-07-25T04:41:46.209Z,61.36
2022-07-25T04:44:14.552Z,61.34
2022-07-25T04:46:42.357Z,60.90
2022-07-25T04:49:10.175Z,60.70
2022-07-25T04:51:38.160Z,60.33
2022-07-25T04:54:06.839Z,60.16
2022-07-25T04:56:35.609Z,59.82
2022-07-25T04:59:06.360Z,59.56
2022-07-25T05:01:35.732Z,59.05
2022-07-25T05:04:03.956Z,58.99
2022-07-25T05:06:32.092Z,58.65
2022-07-25T05:08:59.930Z,58.54
2022-07-25T05:11:27.720Z,57.61
2022-07-25T05:13:56.518Z,57.74
2022-07-25T05:16:24.312Z,57.58
2022-07-25T05:18:52.133Z,56.99
2022-07-25T05:21:20.007Z,56.87
2022-07-25T05:23:47.776Z,56.16
2022-07-25T05:26:15.622Z,55.57
2022-07-25T05:28:43.625Z,55.37
2022-07-25T05:31:11.416Z,55.09
2022-07-25T05:33:39.346Z,54.79
2022-07-25T05:36:08.827Z,54.51
2022-07-25T05:38:36.606Z,54.22
2022-07-25T05:41:05.153Z,53.52
2022-07-25T05:43:32.987Z,53.43
2022-07-25T05:46:03.120Z,53.65
2022-07-25T05:48:32.038Z,53.62
2022-07-25T05:50:59.999Z,53.51
2022-07-25T05:53:27.744Z,53.24
2022-07-25T05:55:55.513Z,52.64
2022-07-25T05:58:29.099Z,52.13
2022-07-25T06:00:58.611Z,51.78
2022-07-25T06:03:26.590Z,51.75
2022-07-25T06:05:56.743Z,51.32
2022-07-25T06:08:24.932Z,50.83
2022-07-25T06:10:53.172Z,50.61
2022-07-25T06:13:21.110Z,49.43
2022-07-25T06:15:51.562Z,49.10
2022-07-25T06:18:19.565Z,48.73
2022-07-25T06:20:47.559Z,48.62
2022-07-25T06:23:16.500Z,48.69
2022-07-25T06:25:50.102Z,47.51
2022-07-25T06:28:19.007Z,46.59
2022-07-25T06:30:48.289Z,46.22
2022-07-25T06:33:16.156Z,45.90
2022-07-25T06:35:43.923Z,44.79
2022-07-25T06:38:11.742Z,43.46
2022-07-25T06:40:39.491Z,43.32
2022-07-25T06:43:07.996Z,43.80
2022-07-25T06:45:36.089Z,42.38
2022-07-25T06:48:04.213Z,42.33
2022-07-25T06:50:32.442Z,41.79
2022-07-25T06:53:00.157Z,40.99
2022-07-25T06:55:27.905Z,39.91
2022-07-25T06:57:56.033Z,40.19
2022-07-25T07:00:23.815Z,40.32
2022-07-25T07:02:56.448Z,39.84
2022-07-25T07:05:29.102Z,39.19
2022-07-25T07:07:57.910Z,39.06
2022-07-25T07:10:27.023Z,38.81
2022-07-25T07:13:14.288Z,38.40
2022-07-25T07:15:50.288Z,38.73
2022-07-25T07:18:19.990Z,38.22
2022-07-25T07:20:48.626Z,38.04
2022-07-25T07:23:17.855Z,36.91
2022-07-25T07:25:47.218Z,36.79
2022-07-25T07:28:16.413Z,36.76
2022-07-25T07:31:14.681Z,36.30
2022-07-25T07:33:36.074Z,35.23
2022-07-25T07:36:04.390Z,34.87
2022-07-25T07:38:32.278Z,34.38
2022-07-25T07:41:00.080Z,34.45
2022-07-25T07:43:30.439Z,34.14
2022-07-25T07:46:01.373Z,33.82
2022-07-25T07:48:33.192Z,33.79
2022-07-25T07:51:02.674Z,32.96
2022-07-25T07:53:49.619Z,31.97
2022-07-25T07:56:19.355Z,32.03
2022-07-25T07:58:47.383Z,32.11
2022-07-25T08:01:15.267Z,31.87
2022-07-25T08:03:43.256Z,31.65
2022-07-25T08:06:11.129Z,31.22
2022-07-25T08:08:39.712Z,31.52
2022-07-25T08:11:07.584Z,30.42
2022-07-25T08:13:38.292Z,29.12
2022-07-25T08:16:07.080Z,29.15
2022-07-25T08:18:34.977Z,29.19
2022-07-25T08:21:05.597Z,29.14
2022-07-25T08:23:39.089Z,29.25
2022-07-25T08:26:07.682Z,28.62
2022-07-25T08:28:35.996Z,28.11
2022-07-25T08:31:04.128Z,27.71
2022-07-25T08:33:32.299Z,27.52
2022-07-25T08:36:01.533Z,27.58
2022-07-25T08:38:29.856Z,27.89
2022-07-25T08:40:58.927Z,27.88
2022-07-25T08:43:27.347Z,27.77
2022-07-25T08:45:55.995Z,27.65
2022-07-25T08:48:26.077Z,27.37
2022-07-25T08:50:57.285Z,27.25
2022-07-25T08:53:34.862Z,26.83
2022-07-25T08:56:16.222Z,26.13
2022-07-25T08:58:49.671Z,26.20
2022-07-25T09:01:17.710Z,26.04
2022-07-25T09:03:45.559Z,25.66
2022-07-25T09:06:22.239Z,25.15
2022-07-25T09:08:59.681Z,25.34
2022-07-25T09:11:36.808Z,24.90
2022-07-25T09:14:14.762Z,24.91
2022-07-25T09:16:45.166Z,24.88
2022-07-25T09:19:19.631Z,24.30
2022-07-25T09:22:02.507Z,24.60
2022-07-25T09:24:31.025Z,24.35
2022-07-25T09:27:08.606Z,24.20
2022-07-25T09:29:39.505Z,24.56
2022-07-25T09:32:33.637Z,24.18
2022-07-25T09:35:01.604Z,23.98
2022-07-25T09:37:29.399Z,23.68
2022-07-25T09:39:59.788Z,23.40
2022-07-25T09:42:36.279Z,23.54
2022-07-25T09:45:12.639Z,23.53
2022-07-25T09:47:51.683Z,23.75
2022-07-25T09:50:21.643Z,23.45
2022-07-25T09:52:55.539Z,23.52
2022-07-25T09:55:24.345Z,23.98
2022-07-25T09:57:55.197Z,23.88
2022-07-25T10:00:27.712Z,23.82
2022-07-25T10:02:56.066Z,23.89
2022-07-25T10:05:23.809Z,24.02
2022-07-25T10:07:55.005Z,24.06
2022-07-25T10:10:32.358Z,23.91
2022-07-25T10:13:32.029Z,23.56
2022-07-25T10:16:00.326Z,23.74
2022-07-25T10:18:31.267Z,23.40
2022-07-25T10:21:26.153Z,23.21
2022-07-25T10:24:14.318Z,23.34
2022-07-25T10:26:53.212Z,23.37
2022-07-25T10:29:21.675Z,23.18
2022-07-25T10:31:52.140Z,22.84
2022-07-25T10:34:31.893Z,22.64
2022-07-25T10:37:12.172Z,22.78
2022-07-25T10:39:44.854Z,22.68
2022-07-25T10:42:18.132Z,22.67
2022-07-25T10:44:49.589Z,22.94
2022-07-25T10:47:18.295Z,22.63
2022-07-25T10:50:13.848Z,22.21
2022-07-25T10:52:46.207Z,22.45
2022-07-25T10:55:24.111Z,22.10
2022-07-25T10:58:18.049Z,22.30
2022-07-25T11:00:46.539Z,22.07
2022-07-25T11:03:18.149Z,21.92
2022-07-25T11:05:48.520Z,21.87
2022-07-25T11:08:22.424Z,21.95
2022-07-25T11:10:52.656Z,22.15
2022-07-25T11:13:20.886Z,22.07
2022-07-25T11:15:48.825Z,22.23
2022-07-25T11:18:18.653Z,22.13
2022-07-25T11:20:46.528Z,22.10
2022-07-25T11:23:21.637Z,22.09
2022-07-25T11:25:51.592Z,22.13
2022-07-25T11:28:19.453Z,21.86
2022-07-25T11:30:47.652Z,22.10
2022-07-25T11:33:17.638Z,22.40
2022-07-25T11:35:48.701Z,22.59
2022-07-25T11:38:17.098Z,22.68
2022-07-25T11:40:46.730Z,22.64
2022-07-25T11:43:22.551Z,22.32
2022-07-25T11:46:18.629Z,22.15
2022-07-25T11:48:48.023Z,21.62
2022-07-25T11:51:19.431Z,21.91
2022-07-25T11:53:50.977Z,22.42
2022-07-25T11:59:10.557Z,22.38
2022-07-25T12:01:42.224Z,22.39
2022-07-25T12:04:17.835Z,22.43
2022-07-25T12:06:48.757Z,22.53
2022-07-25T12:09:22.042Z,22.10
2022-07-25T12:11:50.154Z,22.11
2022-07-25T12:14:18.382Z,22.10
2022-07-25T12:16:47.186Z,22.21
2022-07-25T12:19:21.715Z,22.36
2022-07-25T12:21:49.526Z,22.62
2022-07-25T12:24:17.334Z,22.65
2022-07-25T12:26:45.225Z,22.72
2022-07-25T12:29:13.023Z,21.89
2022-07-25T12:31:40.771Z,21.92
2022-07-25T12:34:08.525Z,22.22
2022-07-25T12:36:41.329Z,22.13
2022-07-25T12:39:09.830Z,22.24
2022-07-25T12:41:37.948Z,22.09
2022-07-25T12:44:05.762Z,21.90
2022-07-25T12:46:33.645Z,22.03
2022-07-25T12:49:02.780Z,22.03
2022-07-25T12:51:30.821Z,21.93
2022-07-25T12:53:58.707Z,21.75
2022-07-25T12:56:26.412Z,21.71
2022-07-25T12:58:54.919Z,21.82
2022-07-25T13:01:22.742Z,21.95
2022-07-25T13:03:50.544Z,22.09
2022-07-25T13:06:20.865Z,22.19
2022-07-25T13:08:48.804Z,22.34
2022-07-25T13:11:16.919Z,22.47
2022-07-25T13:13:44.803Z,22.27
2022-07-25T13:16:12.574Z,21.98
2022-07-25T13:18:40.434Z,22.11
2022-07-25T13:21:08.163Z,22.12
2022-07-25T13:23:36.126Z,22.16
2022-07-25T13:26:04.010Z,22.31
2022-07-25T13:28:31.834Z,22.49
2022-07-25T13:31:01.882Z,22.62
2022-07-25T13:33:30.879Z,22.70
2022-07-25T13:35:58.884Z,22.59
2022-07-25T13:38:26.930Z,22.70
2022-07-25T13:40:58.789Z,22.64
2022-07-25T13:43:26.883Z,22.68
2022-07-25T13:45:54.832Z,22.82
2022-07-25T13:48:31.154Z,22.83
2022-07-25T13:50:59.682Z,23.07
2022-07-25T13:53:30.213Z,23.48
2022-07-25T13:55:59.988Z,23.50
2022-07-25T13:58:28.593Z,23.31
2022-07-25T14:00:56.615Z,23.24
2022-07-25T14:03:24.438Z,23.31
2022-07-25T14:05:52.252Z,23.62
2022-07-25T14:08:20.315Z,23.88
2022-07-25T14:10:48.122Z,23.89
2022-07-25T14:13:15.983Z,23.95
2022-07-25T14:15:45.040Z,23.94
2022-07-25T14:18:12.913Z,24.17
2022-07-25T14:20:40.651Z,24.30
2022-07-25T14:23:08.421Z,24.14
2022-07-25T14:25:36.307Z,24.37
2022-07-25T14:28:04.240Z,24.45
2022-07-25T14:30:32.085Z,24.62
2022-07-25T14:33:00.060Z,24.49
2022-07-25T14:35:32.605Z,24.49
2022-07-25T14:38:00.912Z,24.59
2022-07-25T14:40:28.664Z,24.49
2022-07-25T14:42:56.522Z,24.40
2022-07-25T14:45:24.315Z,24.65
2022-07-25T14:47:52.111Z,24.57
2022-07-25T14:50:20.022Z,24.53
2022-07-25T14:52:47.711Z,24.65
2022-07-25T14:55:15.549Z,24.66
2022-07-25T14:57:45.032Z,24.74
2022-07-25T15:00:13.621Z,24.80
2022-07-25T15:02:41.432Z,24.82
2022-07-25T15:05:09.966Z,24.96
2022-07-25T15:07:38.626Z,25.20
2022-07-25T15:10:06.819Z,25.16
2022-07-25T15:12:34.860Z,24.80
2022-07-25T15:15:02.690Z,24.91
2022-07-25T15:17:30.766Z,24.99
2022-07-25T15:19:58.735Z,25.13
2022-07-25T15:22:26.513Z,24.98
2022-07-25T15:27:42.139Z,25.18
2022-07-25T15:30:11.010Z,25.11
2022-07-25T15:32:40.233Z,24.93
2022-07-25T15:35:11.664Z,25.19
2022-07-25T15:37:39.628Z,25.26
2022-07-25T15:40:08.177Z,25.43
2022-07-25T15:42:38.276Z,25.31
2022-07-25T15:45:31.888Z,25.55
2022-07-25T15:47:56.721Z,25.41
2022-07-25T15:50:25.902Z,25.50
2022-07-25T15:52:56.193Z,25.49
2022-07-25T15:55:23.936Z,25.49
2022-07-25T15:57:54.087Z,25.56
2022-07-25T16:00:24.854Z,25.66
2022-07-25T16:02:57.700Z,25.55
2022-07-25T16:05:25.698Z,25.61
2022-07-25T16:07:53.540Z,25.62
2022-07-25T16:10:21.337Z,25.74
2022-07-25T16:12:49.242Z,25.81
2022-07-25T16:15:17.124Z,25.84
2022-07-25T16:17:44.971Z,25.86
2022-07-25T16:20:14.836Z,25.69
2022-07-25T16:22:42.674Z,25.75
2022-07-25T16:25:10.545Z,25.86
2022-07-25T16:27:38.445Z,25.77
2022-07-25T16:30:07.681Z,25.73
2022-07-25T16:32:35.941Z,25.84
2022-07-25T16:35:04.201Z,25.93
2022-07-25T16:37:32.028Z,26.06
2022-07-25T16:40:03.294Z,26.15
2022-07-25T16:42:31.174Z,26.26
2022-07-25T16:44:59.169Z,26.20
2022-07-25T16:47:27.358Z,26.33
2022-07-25T16:49:55.298Z,26.24
2022-07-25T16:52:24.658Z,26.24
2022-07-25T16:54:54.159Z,26.38
2022-07-25T16:57:23.809Z,26.44
2022-07-25T16:59:53.726Z,26.48
2022-07-25T17:02:27.506Z,26.58
2022-07-25T17:05:00.594Z,26.68
2022-07-25T17:07:28.567Z,26.81
2022-07-25T17:09:56.376Z,27.02
2022-07-25T17:12:24.229Z,27.09
2022-07-25T17:14:51.917Z,27.28
2022-07-25T17:17:19.737Z,27.38
2022-07-25T17:19:47.502Z,27.48
2022-07-25T17:22:15.597Z,27.56
2022-07-25T17:24:43.510Z,27.72
2022-07-25T17:27:11.447Z,27.85
2022-07-25T17:29:42.679Z,27.84
2022-07-25T17:32:10.495Z,28.18
2022-07-25T17:34:38.440Z,28.27
2022-07-25T17:37:07.431Z,28.28
2022-07-25T17:39:35.445Z,28.37
2022-07-25T17:42:07.360Z,28.53
2022-07-25T17:44:35.380Z,28.67
2022-07-25T17:47:04.213Z,28.71
2022-07-25T17:49:32.024Z,28.74
2022-07-25T17:51:59.802Z,28.81
2022-07-25T17:54:27.489Z,28.90
2022-07-25T17:56:55.237Z,28.96
2022-07-25T17:59:23.214Z,28.92
2022-07-25T18:01:51.114Z,29.44
2022-07-25T18:04:18.926Z,29.72
2022-07-25T18:06:46.894Z,29.39
2022-07-25T18:09:20.363Z,29.37
2022-07-25T18:11:48.330Z,29.50
2022-07-25T18:14:16.385Z,29.61
2022-07-25T18:16:45.508Z,29.64
2022-07-25T18:19:14.091Z,29.67
2022-07-25T18:21:41.969Z,29.75
2022-07-25T18:24:10.377Z,29.86
2022-07-25T18:26:39.888Z,29.94
2022-07-25T18:29:08.659Z,29.91
2022-07-25T18:31:36.929Z,30.00
2022-07-25T18:34:05.227Z,30.07
2022-07-25T18:36:33.332Z,30.14
2022-07-25T18:39:01.075Z,30.17
2022-07-25T18:41:30.310Z,30.31
2022-07-25T18:43:58.833Z,30.37
2022-07-25T18:46:30.435Z,30.55
2022-07-25T18:48:59.775Z,30.60
2022-07-25T18:51:28.077Z,30.68
2022-07-25T18:53:56.407Z,30.79
2022-07-25T18:56:24.209Z,30.84
2022-07-25T18:58:52.129Z,31.01
2022-07-25T19:01:20.102Z,31.15
2022-07-25T19:03:48.053Z,31.28
2022-07-25T19:06:16.344Z,31.41
2022-07-25T19:08:44.257Z,31.50
2022-07-25T19:11:12.185Z,31.61
2022-07-25T19:13:50.924Z,31.73
2022-07-25T19:16:19.972Z,31.86
2022-07-25T19:18:48.133Z,31.90
2022-07-25T19:21:16.826Z,32.10
2022-07-25T19:23:50.436Z,32.17
2022-07-25T19:26:20.307Z,32.43
2022-07-25T19:28:50.164Z,32.46
2022-07-25T19:31:18.515Z,32.65
2022-07-25T19:33:46.444Z,32.79
2022-07-25T19:36:14.421Z,32.87
2022-07-25T19:38:42.291Z,33.01
2022-07-25T19:41:10.237Z,33.11
2022-07-25T19:43:38.054Z,33.20
2022-07-25T19:46:06.463Z,33.41
2022-07-25T19:48:34.530Z,33.48
2022-07-25T19:51:05.142Z,33.54
2022-07-25T19:53:33.058Z,33.67
2022-07-25T19:56:01.442Z,33.76
2022-07-25T19:58:29.366Z,33.78
2022-07-25T20:00:57.235Z,33.86
2022-07-25T20:03:25.027Z,34.08
2022-07-25T20:05:52.871Z,34.11
2022-07-25T20:08:20.652Z,34.25
2022-07-25T20:10:49.084Z,34.43
2022-07-25T20:13:17.139Z,34.55
2022-07-25T20:15:45.042Z,34.61
2022-07-25T20:18:17.393Z,34.65
2022-07-25T20:20:47.814Z,34.82
2022-07-25T20:23:15.762Z,35.04
2022-07-25T20:25:43.613Z,35.07
2022-07-25T20:28:11.580Z,35.32
2022-07-25T20:30:39.884Z,35.38
2022-07-25T20:33:09.555Z,35.38
2022-07-25T20:35:38.234Z,35.49
2022-07-25T20:38:09.179Z,35.62
2022-07-25T20:40:46.284Z,35.74
2022-07-25T20:43:16.183Z,35.93
2022-07-25T20:45:44.483Z,35.92
2022-07-25T20:48:12.759Z,36.14
2022-07-25T20:50:40.784Z,36.47
2022-07-25T20:53:09.620Z,36.55
2022-07-25T20:55:37.588Z,36.60
2022-07-25T20:58:05.665Z,36.57
2022-07-25T21:00:33.718Z,36.73
2022-07-25T21:03:01.868Z,36.80
2022-07-25T21:05:29.780Z,36.95
2022-07-25T21:07:57.779Z,36.96
2022-07-25T21:10:26.305Z,37.01
2022-07-25T21:12:55.925Z,37.13
2022-07-25T21:15:24.451Z,37.23
2022-07-25T21:17:52.312Z,37.29
2022-07-25T21:20:20.187Z,37.33
2022-07-25T21:22:48.245Z,37.39
2022-07-25T21:25:16.119Z,37.41
2022-07-25T21:27:43.900Z,37.42
2022-07-25T21:30:12.276Z,37.60
2022-07-25T21:32:41.291Z,37.61
2022-07-25T21:35:09.525Z,37.65
2022-07-25T21:37:37.299Z,37.92
2022-07-25T21:40:05.932Z,37.95
2022-07-25T21:42:33.738Z,38.05
2022-07-25T21:45:01.558Z,38.12
2022-07-25T21:47:29.283Z,38.37
2022-07-25T21:50:19.209Z,38.27
2022-07-25T21:52:53.376Z,38.35
2022-07-25T21:55:21.582Z,38.47
2022-07-25T21:57:51.359Z,38.67
2022-07-25T22:00:20.015Z,38.71
2022-07-25T22:02:48.201Z,38.82
2022-07-25T22:05:18.651Z,38.92
2022-07-25T22:08:07.328Z,39.03
2022-07-25T22:10:35.248Z,39.64
2022-07-25T22:13:03.048Z,40.55
2022-07-25T22:15:31.733Z,40.51
2022-07-25T22:17:59.489Z,40.21
2022-07-25T22:20:27.420Z,40.22
2022-07-25T22:22:55.136Z,40.29
2022-07-25T22:25:23.009Z,40.59
2022-07-25T22:27:50.875Z,40.83
2022-07-25T22:30:19.640Z,40.75
2022-07-25T22:32:49.326Z,40.54
2022-07-25T22:35:17.635Z,40.37
2022-07-25T22:37:46.255Z,40.49
2022-07-25T22:40:14.773Z,40.99
2022-07-25T22:42:42.638Z,41.24
2022-07-25T22:45:11.179Z,41.40
2022-07-25T22:47:39.048Z,41.37
2022-07-25T22:50:08.288Z,41.02
2022-07-25T22:52:36.059Z,41.05
2022-07-25T22:55:04.277Z,41.07
2022-07-25T22:57:36.797Z,41.12
2022-07-25T23:00:08.678Z,41.14
2022-07-25T23:02:37.128Z,41.20
2022-07-25T23:05:07.030Z,41.54
2022-07-25T23:07:35.371Z,41.64
2022-07-25T23:10:04.764Z,41.31
2022-07-25T23:12:32.496Z,40.80
2022-07-25T23:15:00.376Z,40.78
2022-07-25T23:17:28.111Z,40.95
2022-07-25T23:19:56.494Z,41.18
2022-07-25T23:22:26.679Z,42.11
2022-07-25T23:24:56.192Z,42.14
2022-07-25T23:27:24.888Z,42.08
2022-07-25T23:29:53.246Z,42.07
2022-07-25T23:32:21.545Z,41.95
2022-07-25T23:34:49.375Z,42.23
2022-07-25T23:37:17.125Z,42.13
2022-07-25T23:39:45.087Z,42.02
2022-07-25T23:42:12.856Z,41.89
2022-07-25T23:44:42.201Z,41.96
2022-07-25T23:47:12.262Z,41.94
2022-07-25T23:49:40.553Z,41.89
2022-07-25T23:52:08.624Z,41.86
2022-07-25T23:54:38.269Z,41.87
2022-07-25T23:57:07.387Z,41.85
2022-07-25T23:59:35.886Z,41.92
